createdAt,value
2022-12-27T00:00:27.363Z,4.16
2022-12-27T00:02:56.904Z,4.17
2022-12-27T00:05:27.100Z,4.15
2022-12-27T00:07:57.770Z,4.16
2022-12-27T00:10:27.733Z,4.23
2022-12-27T00:12:59.269Z,4.25
2022-12-27T00:15:28.904Z,4.26
2022-12-27T00:17:57.359Z,4.27
2022-12-27T00:20:26.998Z,4.28
2022-12-27T00:22:56.954Z,4.31
2022-12-27T00:25:26.999Z,4.28
2022-12-27T00:27:57.358Z,4.31
2022-12-27T00:30:27.232Z,4.30
2022-12-27T00:32:57.737Z,4.33
2022-12-27T00:35:27.674Z,4.27
2022-12-27T00:37:57.431Z,4.28
2022-12-27T00:40:26.396Z,4.30
2022-12-27T00:42:55.731Z,4.30
2022-12-27T00:45:26.732Z,4.36
2022-12-27T00:47:57.685Z,4.38
2022-12-27T00:50:27.268Z,4.37
2022-12-27T00:52:56.404Z,4.42
2022-12-27T00:55:26.248Z,4.41
2022-12-27T00:57:56.455Z,4.45
2022-12-27T01:00:27.619Z,4.47
2022-12-27T01:02:57.944Z,4.49
2022-12-27T01:05:28.512Z,4.43
2022-12-27T01:07:57.741Z,4.50
2022-12-27T01:10:27.278Z,4.51
2022-12-27T01:12:57.432Z,4.49
2022-12-27T01:15:28.284Z,4.50
2022-12-27T01:17:57.880Z,4.48
2022-12-27T01:20:27.510Z,4.52
2022-12-27T01:22:58.142Z,4.54
2022-12-27T01:25:28.061Z,4.53
2022-12-27T01:27:57.505Z,4.52
2022-12-27T01:30:28.497Z,4.52
2022-12-27T01:32:58.869Z,4.52
2022-12-27T01:35:28.562Z,4.45
2022-12-27T01:37:58.090Z,4.37
2022-12-27T01:40:29.228Z,4.41
2022-12-27T01:42:58.283Z,4.44
2022-12-27T01:45:31.618Z,4.45
2022-12-27T01:48:07.718Z,4.45
2022-12-27T01:50:42.430Z,4.48
2022-12-27T01:53:17.945Z,4.46
2022-12-27T01:55:51.900Z,4.43
2022-12-27T01:58:28.581Z,4.44
2022-12-27T02:01:00.923Z,4.44
2022-12-27T02:03:35.310Z,4.43
2022-12-27T02:06:07.952Z,4.44
2022-12-27T02:08:45.469Z,4.37
2022-12-27T02:11:17.141Z,4.42
2022-12-27T02:13:48.927Z,4.38
2022-12-27T02:16:21.654Z,4.33
2022-12-27T02:18:51.717Z,4.33
2022-12-27T02:22:06.852Z,4.32
2022-12-27T02:25:12.204Z,4.25
2022-12-27T02:28:14.265Z,4.27
2022-12-27T02:30:48.718Z,4.29
2022-12-27T02:33:26.519Z,4.29
2022-12-27T02:36:05.190Z,4.26
2022-12-27T02:38:42.582Z,4.27
2022-12-27T02:41:32.412Z,4.30
2022-12-27T02:44:18.362Z,4.25
2022-12-27T02:47:07.748Z,4.27
2022-12-27T02:49:56.811Z,4.31
2022-12-27T02:53:06.203Z,4.35
2022-12-27T02:56:25.265Z,4.38
2022-12-27T02:59:16.320Z,4.42
2022-12-27T03:02:20.773Z,4.44
2022-12-27T03:05:16.599Z,4.45
2022-12-27T03:07:56.864Z,4.44
2022-12-27T03:10:52.930Z,4.47
2022-12-27T03:13:46.930Z,4.50
2022-12-27T03:16:24.840Z,4.50
2022-12-27T03:19:41.135Z,4.54
2022-12-27T03:22:31.308Z,4.55
2022-12-27T03:25:22.006Z,4.59
2022-12-27T03:28:18.092Z,4.58
2022-12-27T03:31:11.352Z,4.62
2022-12-27T03:33:44.034Z,4.63
2022-12-27T03:36:38.152Z,4.65
2022-12-27T03:39:14.822Z,4.67
2022-12-27T03:42:11.241Z,4.67
2022-12-27T03:44:41.931Z,4.67
2022-12-27T03:47:21.523Z,4.71
2022-12-27T03:49:57.479Z,4.74
2022-12-27T03:52:38.175Z,4.76
2022-12-27T03:55:07.987Z,4.78
2022-12-27T03:57:38.606Z,4.80
2022-12-27T04:00:09.258Z,4.83
2022-12-27T04:02:39.980Z,4.84
2022-12-27T04:05:10.591Z,4.87
2022-12-27T04:07:54.789Z,4.86
2022-12-27T04:10:42.383Z,4.87
2022-12-27T04:13:28.934Z,4.86
2022-12-27T04:16:16.372Z,4.88
2022-12-27T04:19:03.578Z,4.87
2022-12-27T04:21:50.199Z,4.85
2022-12-27T04:24:38.826Z,4.84
2022-12-27T04:27:25.714Z,4.84
2022-12-27T04:30:12.307Z,4.85
2022-12-27T04:32:59.204Z,4.88
2022-12-27T04:35:29.889Z,4.89
2022-12-27T04:38:00.419Z,4.90
2022-12-27T04:40:49.197Z,4.91
2022-12-27T04:43:35.270Z,4.88
2022-12-27T04:46:21.431Z,4.91
2022-12-27T04:49:03.746Z,4.88
2022-12-27T04:51:51.371Z,4.87
2022-12-27T04:54:42.072Z,4.88
2022-12-27T04:57:13.587Z,4.90
2022-12-27T05:00:01.830Z,4.93
2022-12-27T05:02:32.528Z,4.95
2022-12-27T05:05:02.276Z,4.95
2022-12-27T05:07:49.174Z,4.94
2022-12-27T05:10:35.951Z,4.94
2022-12-27T05:13:24.182Z,4.92
2022-12-27T05:15:54.215Z,4.92
2022-12-27T05:18:23.425Z,4.88
2022-12-27T05:20:54.037Z,4.85
2022-12-27T05:23:40.971Z,4.82
2022-12-27T05:26:10.923Z,4.76
2022-12-27T05:28:41.828Z,4.78
2022-12-27T05:31:11.893Z,4.73
2022-12-27T05:33:41.133Z,4.65
2022-12-27T05:36:12.107Z,4.62
2022-12-27T05:38:42.180Z,4.62
2022-12-27T05:41:12.215Z,4.59
2022-12-27T05:43:43.460Z,4.61
2022-12-27T05:46:15.419Z,4.55
2022-12-27T05:48:45.639Z,4.53
2022-12-27T05:51:17.203Z,4.45
2022-12-27T05:53:48.605Z,4.29
2022-12-27T05:56:21.210Z,4.24
2022-12-27T05:58:55.405Z,4.18
2022-12-27T06:01:24.278Z,4.19
2022-12-27T06:03:53.782Z,4.04
2022-12-27T06:06:24.060Z,4.03
2022-12-27T06:08:53.594Z,4.01
2022-12-27T06:11:22.693Z,3.98
2022-12-27T06:13:55.938Z,3.99
2022-12-27T06:16:26.151Z,3.92
2022-12-27T06:18:55.063Z,3.92
2022-12-27T06:21:25.755Z,3.81
2022-12-27T06:23:55.904Z,3.76
2022-12-27T06:26:28.153Z,3.78
2022-12-27T06:29:00.502Z,3.77
2022-12-27T06:31:32.168Z,3.76
2022-12-27T06:34:00.990Z,3.69
2022-12-27T06:36:30.395Z,3.69
2022-12-27T06:39:00.415Z,3.64
2022-12-27T06:41:28.949Z,3.59
2022-12-27T06:44:00.660Z,3.56
2022-12-27T06:46:30.307Z,3.60
2022-12-27T06:48:59.768Z,3.53
2022-12-27T06:51:29.336Z,3.58
2022-12-27T06:53:59.670Z,3.52
2022-12-27T06:56:29.630Z,3.51
2022-12-27T06:59:01.786Z,3.40
2022-12-27T07:01:31.906Z,3.38
2022-12-27T07:04:01.919Z,3.29
2022-12-27T07:06:33.509Z,3.26
2022-12-27T07:09:03.718Z,3.20
2022-12-27T07:11:35.607Z,3.27
2022-12-27T07:14:06.576Z,3.26
2022-12-27T07:16:36.759Z,3.29
2022-12-27T07:19:07.912Z,3.21
2022-12-27T07:21:38.810Z,3.30
2022-12-27T07:24:10.722Z,3.27
2022-12-27T07:26:40.300Z,3.27
2022-12-27T07:29:12.845Z,3.14
2022-12-27T07:31:42.726Z,3.04
2022-12-27T07:34:11.787Z,3.02
2022-12-27T07:36:41.970Z,3.09
2022-12-27T07:39:11.411Z,3.03
2022-12-27T07:41:40.460Z,3.00
2022-12-27T07:44:12.753Z,2.99
2022-12-27T07:46:42.315Z,3.02
2022-12-27T07:49:17.552Z,3.01
2022-12-27T07:51:48.813Z,3.01
2022-12-27T07:54:18.308Z,3.02
2022-12-27T07:56:47.733Z,3.03
2022-12-27T07:59:18.578Z,3.04
2022-12-27T08:02:07.736Z,3.02
2022-12-27T08:04:40.718Z,3.04
2022-12-27T08:07:16.566Z,3.15
2022-12-27T08:09:48.637Z,3.17
2022-12-27T08:12:18.326Z,3.20
2022-12-27T08:14:49.158Z,3.24
2022-12-27T08:17:22.125Z,3.27
2022-12-27T08:19:53.882Z,3.26
2022-12-27T08:22:24.627Z,3.27
2022-12-27T08:24:54.185Z,3.28
2022-12-27T08:27:24.692Z,3.27
2022-12-27T08:29:55.135Z,3.33
2022-12-27T08:32:25.730Z,3.36
2022-12-27T08:35:06.886Z,3.44
2022-12-27T08:37:45.845Z,3.46
2022-12-27T08:40:17.125Z,3.53
2022-12-27T08:42:46.210Z,3.59
2022-12-27T08:45:17.707Z,3.65
2022-12-27T08:47:46.507Z,3.68
2022-12-27T08:50:16.908Z,3.68
2022-12-27T08:52:46.757Z,3.73
2022-12-27T08:55:16.147Z,3.79
2022-12-27T08:57:45.748Z,3.83
2022-12-27T09:00:17.902Z,3.89
2022-12-27T09:02:47.944Z,3.96
2022-12-27T09:05:18.239Z,4.01
2022-12-27T09:07:48.207Z,4.08
2022-12-27T09:10:18.475Z,4.13
2022-12-27T09:12:48.137Z,4.18
2022-12-27T09:15:18.263Z,4.27
2022-12-27T09:17:47.720Z,4.31
2022-12-27T09:20:17.229Z,4.39
2022-12-27T09:22:47.921Z,4.43
2022-12-27T09:25:18.126Z,4.49
2022-12-27T09:27:48.047Z,4.51
2022-12-27T09:30:19.766Z,4.56
2022-12-27T09:32:50.247Z,4.63
2022-12-27T09:35:20.124Z,4.68
2022-12-27T09:37:51.464Z,4.72
2022-12-27T09:40:24.166Z,4.74
2022-12-27T09:43:20.657Z,4.76
2022-12-27T09:46:00.569Z,4.77
2022-12-27T09:48:36.814Z,4.78
2022-12-27T09:51:14.813Z,4.78
2022-12-27T09:53:49.179Z,4.79
2022-12-27T09:56:40.901Z,4.87
2022-12-27T09:59:29.390Z,4.91
2022-12-27T10:02:00.922Z,4.92
2022-12-27T10:05:09.994Z,4.92
2022-12-27T10:07:41.547Z,5.03
2022-12-27T10:10:26.632Z,5.03
2022-12-27T10:13:51.286Z,5.08
2022-12-27T10:16:33.780Z,5.14
2022-12-27T10:19:27.270Z,5.10
2022-12-27T10:22:13.884Z,5.17
2022-12-27T10:24:50.778Z,5.22
2022-12-27T10:27:25.357Z,5.27
2022-12-27T10:29:56.692Z,5.24
2022-12-27T10:32:26.551Z,5.27
2022-12-27T10:35:02.255Z,5.33
2022-12-27T10:37:32.256Z,5.34
2022-12-27T10:40:12.535Z,5.39
2022-12-27T10:42:49.024Z,5.45
2022-12-27T10:45:32.939Z,5.49
2022-12-27T10:48:18.932Z,5.50
2022-12-27T10:50:57.462Z,5.51
2022-12-27T10:53:38.697Z,5.55
2022-12-27T10:56:14.474Z,5.59
2022-12-27T10:58:50.277Z,5.56
2022-12-27T11:01:27.155Z,5.60
2022-12-27T11:04:20.296Z,5.65
2022-12-27T11:07:12.679Z,5.67
2022-12-27T11:09:50.293Z,5.67
2022-12-27T11:12:24.215Z,5.67
2022-12-27T11:14:59.446Z,5.63
2022-12-27T11:17:36.945Z,5.66
2022-12-27T11:20:22.453Z,5.70
2022-12-27T11:22:57.787Z,5.78
2022-12-27T11:25:30.605Z,5.79
2022-12-27T11:28:06.566Z,5.76
2022-12-27T11:30:41.177Z,5.77
2022-12-27T11:33:26.248Z,5.78
2022-12-27T11:36:00.512Z,5.75
2022-12-27T11:38:35.402Z,5.73
2022-12-27T11:41:09.533Z,5.74
2022-12-27T11:43:50.260Z,5.70
2022-12-27T11:46:30.604Z,5.71
2022-12-27T11:49:00.829Z,5.73
2022-12-27T11:52:02.971Z,5.63
2022-12-27T11:55:10.133Z,5.66
2022-12-27T11:58:15.494Z,5.64
2022-12-27T12:01:05.255Z,5.59
2022-12-27T12:04:15.721Z,5.58
2022-12-27T12:06:56.953Z,5.63
2022-12-27T12:09:54.519Z,5.63
2022-12-27T12:13:14.255Z,5.62
2022-12-27T12:16:52.459Z,5.63
2022-12-27T12:19:42.558Z,5.61
2022-12-27T12:23:04.060Z,5.62
2022-12-27T12:26:15.263Z,5.57
2022-12-27T12:29:26.861Z,5.54
2022-12-27T12:32:35.508Z,5.51
2022-12-27T12:35:47.641Z,5.52
2022-12-27T12:38:25.117Z,5.52
2022-12-27T12:41:48.401Z,5.51
2022-12-27T12:45:08.073Z,5.50
2022-12-27T12:48:07.658Z,5.47
2022-12-27T12:51:16.042Z,5.44
2022-12-27T12:54:05.190Z,5.42
2022-12-27T12:57:03.713Z,5.39
2022-12-27T13:00:13.347Z,5.42
2022-12-27T13:03:39.589Z,5.45
2022-12-27T13:06:29.495Z,5.49
2022-12-27T13:09:16.005Z,5.48
2022-12-27T13:12:02.924Z,5.46
2022-12-27T13:15:01.023Z,5.49
2022-12-27T13:17:43.893Z,5.50
2022-12-27T13:20:48.394Z,5.50
2022-12-27T13:23:34.919Z,5.52
2022-12-27T13:26:20.816Z,5.53
2022-12-27T13:29:22.696Z,5.51
2022-12-27T13:32:06.283Z,5.55
2022-12-27T13:34:51.377Z,5.55
2022-12-27T13:37:34.626Z,5.55
2022-12-27T13:40:56.521Z,5.52
2022-12-27T13:44:25.333Z,5.53
2022-12-27T13:47:42.238Z,5.53
2022-12-27T13:51:05.409Z,5.54
2022-12-27T13:54:23.075Z,5.54
2022-12-27T13:57:11.652Z,5.57
2022-12-27T14:00:15.195Z,5.50
2022-12-27T14:03:24.149Z,5.53
2022-12-27T14:06:24.572Z,5.54
2022-12-27T14:09:42.394Z,5.50
2022-12-27T14:13:02.462Z,5.49
2022-12-27T14:16:15.863Z,5.53
2022-12-27T14:19:39.093Z,5.49
2022-12-27T14:22:53.795Z,5.47
2022-12-27T14:26:05.915Z,5.44
2022-12-27T14:29:34.673Z,5.48
2022-12-27T14:32:47.695Z,5.47
2022-12-27T14:36:03.092Z,5.48
2022-12-27T14:39:33.483Z,5.56
2022-12-27T14:42:47.093Z,5.56
2022-12-27T14:46:09.329Z,5.58
2022-12-27T14:49:40.368Z,5.60
2022-12-27T14:52:57.563Z,5.58
2022-12-27T14:56:15.818Z,5.54
2022-12-27T14:59:05.939Z,5.57
2022-12-27T15:01:59.501Z,5.59
2022-12-27T15:05:18.315Z,5.61
2022-12-27T15:08:28.369Z,5.61
2022-12-27T15:11:31.755Z,5.64
2022-12-27T15:14:22.848Z,5.59
2022-12-27T15:17:06.902Z,5.61
2022-12-27T15:20:06.054Z,5.59
2022-12-27T15:22:58.547Z,5.59
2022-12-27T15:25:48.768Z,5.61
2022-12-27T15:28:33.753Z,5.58
2022-12-27T15:31:12.752Z,5.56
2022-12-27T15:33:58.048Z,5.56
2022-12-27T15:36:41.518Z,5.58
2022-12-27T15:39:52.387Z,5.59
2022-12-27T15:42:59.790Z,5.61
2022-12-27T15:45:53.872Z,5.58
2022-12-27T15:49:14.602Z,5.52
2022-12-27T15:51:57.212Z,5.52
2022-12-27T15:55:08.608Z,5.53
2022-12-27T15:58:10.415Z,5.54
2022-12-27T16:00:42.883Z,5.54
2022-12-27T16:03:39.819Z,5.55
2022-12-27T16:06:32.013Z,5.57
2022-12-27T16:09:39.296Z,5.59
2022-12-27T16:12:13.754Z,5.57
2022-12-27T16:14:47.244Z,5.59
2022-12-27T16:17:56.155Z,5.63
2022-12-27T16:20:26.501Z,5.62
2022-12-27T16:23:02.177Z,5.62
2022-12-27T16:25:35.508Z,5.66
2022-12-27T16:28:11.682Z,5.64
2022-12-27T16:30:50.399Z,5.67
2022-12-27T16:33:40.017Z,5.64
2022-12-27T16:36:25.558Z,5.66
2022-12-27T16:39:27.060Z,5.67
2022-12-27T16:42:14.489Z,5.69
2022-12-27T16:44:56.380Z,5.68
2022-12-27T16:48:01.656Z,5.70
2022-12-27T16:50:48.389Z,5.70
2022-12-27T16:53:42.824Z,5.71
2022-12-27T16:56:21.839Z,5.73
2022-12-27T16:58:51.956Z,5.74
2022-12-27T17:02:00.878Z,5.76
2022-12-27T17:05:00.548Z,5.76
2022-12-27T17:08:20.239Z,5.76
2022-12-27T17:11:25.858Z,5.78
2022-12-27T17:14:01.763Z,5.78
2022-12-27T17:16:39.295Z,5.77
2022-12-27T17:19:19.186Z,5.80
2022-12-27T17:21:59.338Z,5.81
2022-12-27T17:24:28.686Z,5.79
2022-12-27T17:27:19.135Z,5.79
2022-12-27T17:30:22.574Z,5.78
2022-12-27T17:33:28.781Z,5.77
2022-12-27T17:36:45.868Z,5.72
2022-12-27T17:39:39.192Z,5.71
2022-12-27T17:42:37.116Z,5.69
2022-12-27T17:45:31.251Z,5.57
2022-12-27T17:48:16.087Z,5.54
2022-12-27T17:50:48.139Z,5.51
2022-12-27T17:53:39.450Z,5.45
2022-12-27T17:56:38.259Z,5.36
2022-12-27T17:59:13.177Z,5.36
2022-12-27T18:02:15.331Z,5.33
2022-12-27T18:04:52.478Z,5.29
2022-12-27T18:07:27.956Z,5.27
2022-12-27T18:10:00.363Z,5.26
2022-12-27T18:12:38.688Z,5.18
2022-12-27T18:15:17.050Z,5.13
2022-12-27T18:17:50.387Z,5.11
2022-12-27T18:20:36.573Z,5.06
2022-12-27T18:23:17.791Z,5.10
2022-12-27T18:26:17.673Z,4.98
2022-12-27T18:28:49.975Z,4.96
2022-12-27T18:31:27.861Z,4.97
2022-12-27T18:34:03.462Z,4.98
2022-12-27T18:36:39.218Z,5.02
2022-12-27T18:39:26.407Z,5.03
2022-12-27T18:41:58.481Z,5.04
2022-12-27T18:44:34.772Z,5.04
2022-12-27T18:47:06.427Z,5.04
2022-12-27T18:49:38.510Z,5.07
2022-12-27T18:52:17.038Z,5.10
2022-12-27T18:54:47.362Z,5.11
2022-12-27T18:57:36.044Z,5.14
2022-12-27T19:00:22.511Z,5.16
2022-12-27T19:02:52.657Z,5.19
2022-12-27T19:05:31.014Z,5.20
2022-12-27T19:08:12.647Z,5.21
2022-12-27T19:10:51.090Z,5.21
2022-12-27T19:13:27.609Z,5.22
2022-12-27T19:15:59.811Z,5.22
2022-12-27T19:18:33.822Z,5.23
2022-12-27T19:21:07.952Z,5.22
2022-12-27T19:23:39.103Z,5.22
2022-12-27T19:26:27.680Z,5.20
2022-12-27T19:29:05.269Z,5.20
2022-12-27T19:31:45.321Z,5.22
2022-12-27T19:34:19.942Z,5.23
2022-12-27T19:36:51.328Z,5.24
2022-12-27T19:39:23.824Z,5.24
2022-12-27T19:41:54.281Z,5.26
2022-12-27T19:44:32.881Z,5.27
2022-12-27T19:47:04.603Z,5.28
2022-12-27T19:49:44.227Z,5.29
2022-12-27T19:52:19.941Z,5.30
2022-12-27T19:54:50.009Z,5.31
2022-12-27T19:57:19.026Z,5.30
2022-12-27T19:59:49.062Z,5.28
2022-12-27T20:02:20.833Z,5.27
2022-12-27T20:04:50.029Z,5.24
2022-12-27T20:07:26.218Z,5.22
2022-12-27T20:09:56.230Z,5.22
2022-12-27T20:12:25.346Z,5.20
2022-12-27T20:14:55.413Z,5.22
2022-12-27T20:17:25.788Z,5.23
2022-12-27T20:19:56.477Z,5.20
2022-12-27T20:22:25.706Z,5.16
2022-12-27T20:24:56.519Z,5.14
2022-12-27T20:27:26.526Z,5.10
2022-12-27T20:29:57.178Z,5.09
2022-12-27T20:32:28.384Z,5.08
2022-12-27T20:34:58.614Z,5.08
2022-12-27T20:37:28.599Z,5.05
2022-12-27T20:39:57.291Z,5.03
2022-12-27T20:42:26.555Z,5.00
2022-12-27T20:44:57.074Z,4.96
2022-12-27T20:47:28.804Z,4.93
2022-12-27T20:49:58.900Z,4.87
2022-12-27T20:52:31.165Z,4.85
2022-12-27T20:55:01.117Z,4.82
2022-12-27T20:57:31.433Z,4.87
2022-12-27T21:00:01.054Z,4.84
2022-12-27T21:02:32.176Z,4.80
2022-12-27T21:05:02.429Z,4.79
2022-12-27T21:07:31.777Z,4.81
2022-12-27T21:10:00.284Z,4.82
2022-12-27T21:12:29.720Z,4.81
2022-12-27T21:14:58.783Z,4.77
2022-12-27T21:17:27.818Z,4.73
2022-12-27T21:19:58.781Z,4.75
2022-12-27T21:22:28.361Z,4.70
2022-12-27T21:24:57.351Z,4.70
2022-12-27T21:27:26.522Z,4.70
2022-12-27T21:29:56.857Z,4.67
2022-12-27T21:32:25.313Z,4.67
2022-12-27T21:34:54.180Z,4.65
2022-12-27T21:37:26.573Z,4.60
2022-12-27T21:39:56.399Z,4.61
2022-12-27T21:42:25.413Z,4.60
2022-12-27T21:44:54.607Z,4.53
2022-12-27T21:47:24.083Z,4.54
2022-12-27T21:49:54.214Z,4.55
2022-12-27T21:52:24.014Z,4.54
2022-12-27T21:54:53.773Z,4.51
2022-12-27T21:57:22.273Z,4.52
2022-12-27T21:59:53.380Z,4.49
2022-12-27T22:02:23.755Z,4.48
2022-12-27T22:04:52.888Z,4.46
2022-12-27T22:07:24.701Z,4.44
2022-12-27T22:09:54.257Z,4.46
2022-12-27T22:12:24.548Z,4.47
2022-12-27T22:14:55.617Z,4.50
2022-12-27T22:17:24.567Z,4.54
2022-12-27T22:19:53.520Z,4.58
2022-12-27T22:22:24.765Z,4.60
2022-12-27T22:24:53.701Z,4.58
2022-12-27T22:27:22.882Z,4.57
2022-12-27T22:29:51.804Z,4.60
2022-12-27T22:32:20.845Z,4.61
2022-12-27T22:34:50.976Z,4.63
2022-12-27T22:37:21.242Z,4.61
2022-12-27T22:39:51.589Z,4.64
2022-12-27T22:42:20.394Z,4.65
2022-12-27T22:44:49.770Z,4.61
2022-12-27T22:47:27.269Z,4.64
2022-12-27T22:49:57.522Z,4.67
2022-12-27T22:52:27.862Z,4.66
2022-12-27T22:55:05.252Z,4.68
2022-12-27T22:57:35.952Z,4.72
2022-12-27T23:00:10.199Z,4.75
2022-12-27T23:02:40.205Z,4.77
2022-12-27T23:05:10.101Z,4.79
2022-12-27T23:08:04.690Z,4.81
2022-12-27T23:10:29.334Z,4.82
2022-12-27T23:13:00.032Z,4.82
2022-12-27T23:15:28.406Z,4.84
2022-12-27T23:17:58.388Z,4.85
2022-12-27T23:20:27.911Z,4.84
2022-12-27T23:22:58.365Z,4.84
2022-12-27T23:25:29.718Z,4.87
2022-12-27T23:27:59.665Z,4.91
2022-12-27T23:30:29.480Z,4.93
2022-12-27T23:32:59.078Z,4.96
2022-12-27T23:35:27.944Z,4.97
2022-12-27T23:37:56.927Z,4.99
2022-12-27T23:40:27.044Z,5.03
2022-12-27T23:43:12.483Z,5.04
2022-12-27T23:45:48.504Z,5.05
2022-12-27T23:48:18.023Z,5.06
2022-12-27T23:50:48.757Z,5.08
2022-12-27T23:53:18.719Z,5.10
2022-12-27T23:55:57.904Z,5.12
2022-12-27T23:58:28.877Z,5.14
